createdAt,value
2022-10-10T00:00:48.766Z,62.60
2022-10-10T00:02:31.402Z,62.60
2022-10-10T00:04:09.780Z,62.70
2022-10-10T00:05:44.076Z,62.70
2022-10-10T00:07:17.313Z,62.70
2022-10-10T00:08:53.212Z,62.80
2022-10-10T00:10:29.205Z,62.90
2022-10-10T00:12:04.529Z,62.90
2022-10-10T00:13:38.662Z,62.90
2022-10-10T00:15:16.574Z,62.90
2022-10-10T00:16:50.263Z,62.90
2022-10-10T00:18:32.684Z,62.90
2022-10-10T00:20:07.495Z,63.00
2022-10-10T00:21:42.428Z,62.90
2022-10-10T00:23:15.290Z,62.90
2022-10-10T00:24:50.971Z,62.90
2022-10-10T00:26:24.724Z,62.90
2022-10-10T00:28:02.573Z,62.90
2022-10-10T00:29:38.716Z,62.90
2022-10-10T00:31:13.805Z,63.00
2022-10-10T00:32:48.117Z,63.00
2022-10-10T00:34:26.321Z,63.00
2022-10-10T00:35:59.118Z,62.90
2022-10-10T00:37:32.424Z,62.80
2022-10-10T00:39:13.687Z,62.80
2022-10-10T00:40:54.069Z,62.90
2022-10-10T00:42:31.104Z,63.00
2022-10-10T00:44:11.525Z,62.90
2022-10-10T00:45:49.571Z,63.10
2022-10-10T00:47:25.032Z,63.00
2022-10-10T00:48:57.515Z,63.00
2022-10-10T00:50:35.478Z,62.90
2022-10-10T00:52:13.257Z,63.00
2022-10-10T00:53:51.620Z,63.10
2022-10-10T00:55:24.699Z,63.10
2022-10-10T00:57:04.305Z,63.10
2022-10-10T00:58:47.503Z,63.20
2022-10-10T01:00:24.652Z,63.30
2022-10-10T01:02:04.465Z,64.00
2022-10-10T01:03:48.327Z,63.30
2022-10-10T01:05:26.571Z,63.30
2022-10-10T01:07:10.619Z,63.30
2022-10-10T01:08:48.863Z,63.30
2022-10-10T01:10:26.804Z,63.30
2022-10-10T01:12:18.648Z,63.30
2022-10-10T01:14:12.137Z,63.30
2022-10-10T01:16:00.234Z,63.50
2022-10-10T01:17:47.137Z,63.30
2022-10-10T01:20:03.328Z,63.30
2022-10-10T01:21:54.421Z,63.60
2022-10-10T01:24:18.180Z,63.30
2022-10-10T01:26:10.417Z,63.60
2022-10-10T01:27:52.872Z,63.40
2022-10-10T01:29:32.745Z,63.30
2022-10-10T01:31:11.320Z,63.30
2022-10-10T01:32:54.308Z,63.30
2022-10-10T01:34:40.690Z,63.30
2022-10-10T01:36:23.141Z,63.50
2022-10-10T01:38:11.421Z,63.50
2022-10-10T01:39:56.131Z,63.50
2022-10-10T01:41:39.673Z,63.50
2022-10-10T01:43:14.587Z,63.50
2022-10-10T01:44:53.812Z,63.50
2022-10-10T01:46:29.305Z,63.50
2022-10-10T01:48:05.834Z,63.50
2022-10-10T01:49:44.269Z,63.50
2022-10-10T01:51:42.381Z,63.50
2022-10-10T01:53:26.489Z,63.80
2022-10-10T01:55:24.083Z,63.60
2022-10-10T01:57:17.608Z,63.70
2022-10-10T01:59:14.861Z,63.60
2022-10-10T02:01:02.306Z,63.60
2022-10-10T02:02:52.929Z,63.50
2022-10-10T02:04:40.605Z,63.40
2022-10-10T02:06:27.805Z,63.30
2022-10-10T02:08:08.797Z,63.20
2022-10-10T02:09:52.245Z,63.00
2022-10-10T02:11:29.381Z,62.90
2022-10-10T02:13:06.923Z,62.80
2022-10-10T02:14:47.562Z,62.80
2022-10-10T02:16:27.245Z,62.80
2022-10-10T02:18:04.145Z,62.80
2022-10-10T02:19:40.212Z,63.60
2022-10-10T02:21:19.855Z,62.70
2022-10-10T02:22:56.970Z,62.80
2022-10-10T02:24:31.671Z,62.80
2022-10-10T02:26:06.237Z,63.50
2022-10-10T02:27:46.008Z,62.80
2022-10-10T02:29:23.692Z,62.80
2022-10-10T02:31:04.182Z,62.70
2022-10-10T02:32:45.588Z,62.70
2022-10-10T02:34:27.343Z,62.70
2022-10-10T02:36:04.709Z,62.60
2022-10-10T02:37:40.603Z,62.50
2022-10-10T02:39:17.706Z,62.50
2022-10-10T02:40:54.070Z,62.50
2022-10-10T02:42:28.436Z,62.50
2022-10-10T02:44:04.357Z,62.50
2022-10-10T02:45:43.481Z,62.40
2022-10-10T02:47:17.015Z,62.30
2022-10-10T02:48:55.788Z,62.30
2022-10-10T02:50:31.378Z,62.20
2022-10-10T02:52:07.388Z,62.20
2022-10-10T02:53:39.837Z,62.10
2022-10-10T02:55:13.881Z,62.00
2022-10-10T02:56:47.001Z,62.10
2022-10-10T02:58:23.369Z,61.80
2022-10-10T03:00:34.575Z,61.90
2022-10-10T03:02:08.841Z,62.10
2022-10-10T03:03:44.058Z,61.90
2022-10-10T03:05:19.082Z,61.90
2022-10-10T03:06:53.497Z,62.00
2022-10-10T03:08:28.651Z,61.80
2022-10-10T03:10:06.253Z,62.60
2022-10-10T03:11:44.134Z,61.80
2022-10-10T03:13:18.407Z,61.80
2022-10-10T03:14:51.047Z,61.80
2022-10-10T03:16:27.538Z,61.80
2022-10-10T03:18:00.909Z,61.80
2022-10-10T03:19:34.594Z,61.80
2022-10-10T03:21:10.250Z,61.70
2022-10-10T03:22:44.018Z,61.70
2022-10-10T03:24:18.179Z,61.70
2022-10-10T03:25:54.623Z,61.80
2022-10-10T03:27:28.568Z,61.90
2022-10-10T03:29:08.683Z,61.80
2022-10-10T03:30:43.360Z,61.80
2022-10-10T03:32:18.476Z,61.70
2022-10-10T03:33:52.151Z,61.70
2022-10-10T03:35:24.610Z,61.60
2022-10-10T03:36:59.263Z,61.60
2022-10-10T03:38:36.050Z,61.70
2022-10-10T03:40:13.542Z,61.60
2022-10-10T03:41:51.716Z,61.60
2022-10-10T03:43:25.167Z,61.50
2022-10-10T03:44:59.150Z,61.40
2022-10-10T03:46:36.224Z,61.40
2022-10-10T03:48:11.091Z,61.50
2022-10-10T03:49:49.834Z,61.40
2022-10-10T03:51:23.968Z,62.40
2022-10-10T03:53:03.924Z,61.50
2022-10-10T03:54:37.311Z,61.50
2022-10-10T03:56:12.963Z,61.50
2022-10-10T03:57:47.347Z,61.50
2022-10-10T03:59:21.135Z,61.40
2022-10-10T04:00:56.237Z,61.50
2022-10-10T04:02:31.275Z,61.60
2022-10-10T04:04:07.093Z,61.70
2022-10-10T04:05:41.161Z,61.70
2022-10-10T04:07:17.047Z,61.70
2022-10-10T04:08:53.920Z,61.70
2022-10-10T04:10:27.763Z,61.80
2022-10-10T04:12:03.072Z,61.90
2022-10-10T04:13:41.683Z,62.00
2022-10-10T04:15:15.274Z,62.00
2022-10-10T04:16:48.552Z,62.00
2022-10-10T04:18:21.718Z,62.10
2022-10-10T04:19:59.277Z,62.20
2022-10-10T04:21:38.194Z,62.20
2022-10-10T04:23:15.823Z,62.30
2022-10-10T04:24:53.134Z,62.40
2022-10-10T04:26:26.815Z,62.30
2022-10-10T04:28:02.904Z,62.30
2022-10-10T04:29:36.148Z,62.40
2022-10-10T04:31:12.287Z,62.40
2022-10-10T04:32:45.705Z,62.40
2022-10-10T04:34:20.683Z,62.30
2022-10-10T04:35:56.643Z,62.40
2022-10-10T04:37:30.413Z,62.40
2022-10-10T04:39:04.396Z,62.30
2022-10-10T04:40:41.820Z,62.30
2022-10-10T04:42:18.159Z,62.30
2022-10-10T04:43:54.087Z,62.20
2022-10-10T04:45:35.222Z,62.20
2022-10-10T04:47:10.865Z,62.10
2022-10-10T04:48:44.101Z,62.00
2022-10-10T04:50:17.490Z,62.10
2022-10-10T04:51:51.044Z,62.10
2022-10-10T04:53:24.908Z,62.20
2022-10-10T04:54:57.363Z,62.20
2022-10-10T04:56:32.802Z,62.30
2022-10-10T04:58:14.580Z,62.30
2022-10-10T04:59:47.895Z,62.30
2022-10-10T05:01:22.911Z,62.30
2022-10-10T05:02:59.366Z,62.30
2022-10-10T05:04:35.661Z,62.30
2022-10-10T05:06:08.582Z,62.60
2022-10-10T05:07:42.106Z,62.50
2022-10-10T05:09:17.696Z,62.60
2022-10-10T05:10:56.990Z,62.70
2022-10-10T05:12:30.852Z,62.60
2022-10-10T05:14:06.051Z,62.70
2022-10-10T05:15:39.686Z,62.60
2022-10-10T05:17:13.936Z,62.70
2022-10-10T05:18:50.508Z,62.60
2022-10-10T05:20:25.096Z,62.70
2022-10-10T05:22:03.349Z,62.60
2022-10-10T05:23:40.033Z,62.70
2022-10-10T05:25:13.644Z,62.70
2022-10-10T05:26:48.553Z,62.70
2022-10-10T05:28:30.233Z,62.70
2022-10-10T05:30:03.684Z,62.80
2022-10-10T05:31:44.051Z,62.60
2022-10-10T05:33:23.929Z,62.60
2022-10-10T05:34:57.381Z,62.70
2022-10-10T05:36:32.348Z,62.50
2022-10-10T05:38:07.691Z,62.60
2022-10-10T05:39:44.272Z,62.60
2022-10-10T05:41:19.105Z,62.70
2022-10-10T05:42:54.531Z,62.60
2022-10-10T05:44:31.411Z,62.60
2022-10-10T05:46:05.721Z,62.60
2022-10-10T05:47:40.179Z,62.70
2022-10-10T05:49:13.631Z,62.60
2022-10-10T05:50:50.884Z,62.70
2022-10-10T05:52:24.315Z,62.70
2022-10-10T05:54:00.483Z,62.60
2022-10-10T05:55:35.273Z,62.70
2022-10-10T05:57:16.040Z,62.80
2022-10-10T05:58:52.241Z,62.70
2022-10-10T06:00:26.936Z,62.80
2022-10-10T06:02:03.276Z,62.90
2022-10-10T06:03:40.228Z,63.00
2022-10-10T06:05:13.715Z,63.30
2022-10-10T06:06:47.271Z,63.40
2022-10-10T06:08:20.749Z,63.40
2022-10-10T06:09:54.186Z,63.40
2022-10-10T06:11:31.146Z,63.50
2022-10-10T06:13:05.216Z,63.60
2022-10-10T06:14:40.522Z,63.50
2022-10-10T06:16:15.763Z,63.60
2022-10-10T06:17:51.743Z,63.80
2022-10-10T06:19:26.911Z,63.80
2022-10-10T06:21:03.683Z,63.80
2022-10-10T06:22:37.347Z,63.90
2022-10-10T06:24:11.575Z,63.90
2022-10-10T06:25:47.172Z,64.70
2022-10-10T06:27:23.703Z,64.00
2022-10-10T06:28:57.119Z,64.10
2022-10-10T06:30:31.161Z,64.10
2022-10-10T06:32:09.140Z,65.10
2022-10-10T06:33:46.514Z,64.50
2022-10-10T06:35:21.056Z,64.50
2022-10-10T06:36:57.232Z,64.60
2022-10-10T06:38:33.878Z,64.70
2022-10-10T06:40:13.083Z,64.70
2022-10-10T06:41:46.404Z,64.90
2022-10-10T06:43:22.271Z,65.00
2022-10-10T06:44:55.803Z,65.10
2022-10-10T06:46:34.248Z,65.20
2022-10-10T06:48:10.544Z,65.30
2022-10-10T06:49:45.593Z,65.40
2022-10-10T06:51:21.227Z,65.40
2022-10-10T06:52:54.461Z,65.30
2022-10-10T06:54:27.972Z,65.30
2022-10-10T06:56:01.759Z,65.40
2022-10-10T06:57:35.111Z,65.60
2022-10-10T06:59:11.883Z,65.80
2022-10-10T07:00:55.131Z,65.80
2022-10-10T07:02:33.127Z,65.90
2022-10-10T07:04:10.411Z,65.90
2022-10-10T07:05:44.355Z,66.00
2022-10-10T07:07:20.735Z,66.00
2022-10-10T07:08:54.197Z,66.00
2022-10-10T07:10:30.703Z,66.10
2022-10-10T07:12:04.472Z,66.10
2022-10-10T07:13:40.335Z,66.10
2022-10-10T07:15:14.491Z,66.20
2022-10-10T07:16:47.698Z,66.20
2022-10-10T07:18:22.322Z,66.20
2022-10-10T07:20:01.608Z,66.30
2022-10-10T07:21:36.729Z,66.30
2022-10-10T07:23:12.752Z,66.30
2022-10-10T07:24:46.618Z,66.30
2022-10-10T07:26:22.266Z,66.40
2022-10-10T07:28:00.070Z,66.50
2022-10-10T07:29:34.748Z,66.50
2022-10-10T07:31:12.141Z,66.70
2022-10-10T07:32:45.120Z,66.80
2022-10-10T07:34:18.415Z,66.90
2022-10-10T07:35:56.949Z,67.20
2022-10-10T07:37:31.523Z,67.50
2022-10-10T07:39:05.071Z,67.40
2022-10-10T07:40:41.579Z,67.60
2022-10-10T07:42:14.937Z,67.70
2022-10-10T07:43:51.921Z,67.80
2022-10-10T07:45:27.649Z,67.80
2022-10-10T07:47:01.097Z,67.80
2022-10-10T07:48:34.417Z,67.80
2022-10-10T07:50:09.161Z,67.90
2022-10-10T07:51:43.920Z,68.00
2022-10-10T07:53:26.120Z,68.20
2022-10-10T07:55:00.627Z,68.50
2022-10-10T07:56:34.655Z,67.50
2022-10-10T07:58:08.237Z,67.70
2022-10-10T07:59:45.737Z,67.80
2022-10-10T08:01:19.258Z,67.90
2022-10-10T08:02:53.991Z,67.90
2022-10-10T08:04:28.334Z,68.20
2022-10-10T08:06:04.748Z,68.40
2022-10-10T08:07:41.746Z,68.50
2022-10-10T08:09:17.245Z,68.60
2022-10-10T08:10:52.175Z,68.80
2022-10-10T08:12:28.027Z,69.00
2022-10-10T08:14:04.334Z,69.30
2022-10-10T08:15:40.935Z,69.40
2022-10-10T08:17:15.798Z,69.50
2022-10-10T08:18:55.370Z,69.60
2022-10-10T08:20:29.048Z,69.70
2022-10-10T08:22:05.487Z,70.00
2022-10-10T08:23:43.776Z,70.20
2022-10-10T08:25:18.799Z,70.40
2022-10-10T08:26:56.267Z,70.40
2022-10-10T08:28:30.065Z,70.90
2022-10-10T08:30:05.428Z,71.50
2022-10-10T08:31:41.265Z,72.00
2022-10-10T08:33:14.535Z,72.70
2022-10-10T08:34:48.367Z,73.30
2022-10-10T08:36:24.379Z,73.90
2022-10-10T08:38:00.325Z,74.60
2022-10-10T08:39:36.103Z,75.00
2022-10-10T08:41:22.895Z,75.50
2022-10-10T08:43:05.350Z,76.10
2022-10-10T08:44:43.962Z,75.90
2022-10-10T08:46:28.382Z,76.10
2022-10-10T08:48:13.281Z,76.10
2022-10-10T08:49:52.511Z,76.40
2022-10-10T08:51:33.227Z,76.30
2022-10-10T08:53:16.939Z,76.20
2022-10-10T08:54:58.501Z,76.00
2022-10-10T08:56:36.512Z,76.50
2022-10-10T08:58:20.558Z,75.70
2022-10-10T09:00:00.817Z,75.60
2022-10-10T09:02:18.105Z,75.20
2022-10-10T09:03:44.119Z,75.00
2022-10-10T09:05:21.346Z,74.70
2022-10-10T09:07:19.741Z,74.50
2022-10-10T09:09:11.558Z,74.30
2022-10-10T09:11:02.280Z,74.30
2022-10-10T09:12:50.552Z,73.50
2022-10-10T09:14:37.709Z,73.00
2022-10-10T09:16:32.887Z,72.60
2022-10-10T09:18:26.632Z,71.80
2022-10-10T09:20:16.833Z,71.20
2022-10-10T09:21:50.164Z,71.10
2022-10-10T09:23:37.528Z,70.90
2022-10-10T09:25:22.516Z,70.30
2022-10-10T09:27:05.392Z,69.80
2022-10-10T09:28:47.267Z,69.50
2022-10-10T09:30:25.455Z,69.00
2022-10-10T09:32:12.229Z,68.60
2022-10-10T09:33:57.964Z,67.80
2022-10-10T09:35:39.368Z,67.80
2022-10-10T09:37:29.540Z,67.60
2022-10-10T09:39:23.139Z,67.30
2022-10-10T09:41:09.587Z,66.90
2022-10-10T09:42:48.097Z,66.80
2022-10-10T09:44:23.728Z,66.80
2022-10-10T09:45:57.467Z,66.80
2022-10-10T09:47:31.409Z,66.20
2022-10-10T09:49:07.649Z,65.70
2022-10-10T09:50:45.913Z,65.80
2022-10-10T09:52:31.444Z,65.40
2022-10-10T09:54:08.271Z,64.60
2022-10-10T09:55:43.908Z,64.60
2022-10-10T09:57:30.593Z,64.00
2022-10-10T09:59:07.362Z,63.50
2022-10-10T10:00:45.812Z,63.40
2022-10-10T10:02:27.168Z,62.40
2022-10-10T10:04:30.394Z,62.10
2022-10-10T10:06:04.721Z,61.40
2022-10-10T10:07:50.404Z,61.90
2022-10-10T10:09:27.605Z,60.70
2022-10-10T10:11:02.335Z,60.90
2022-10-10T10:12:43.195Z,60.40
2022-10-10T10:14:31.048Z,59.50
2022-10-10T10:16:10.901Z,59.20
2022-10-10T10:17:46.384Z,59.40
2022-10-10T10:19:34.435Z,59.40
2022-10-10T10:21:19.299Z,58.00
2022-10-10T10:22:56.064Z,58.00
2022-10-10T10:24:40.081Z,58.30
2022-10-10T10:26:27.297Z,57.50
2022-10-10T10:28:23.782Z,57.30
2022-10-10T10:30:02.412Z,56.00
2022-10-10T10:32:01.926Z,56.40
2022-10-10T10:33:54.100Z,55.50
2022-10-10T10:35:34.811Z,55.60
2022-10-10T10:37:19.524Z,55.50
2022-10-10T10:39:04.513Z,55.40
2022-10-10T10:40:47.596Z,55.40
2022-10-10T10:42:48.402Z,54.90
2022-10-10T10:44:42.998Z,54.30
2022-10-10T10:46:32.339Z,54.00
2022-10-10T10:48:29.324Z,53.70
2022-10-10T10:50:25.957Z,53.60
2022-10-10T10:52:44.522Z,53.10
2022-10-10T10:54:47.221Z,52.20
2022-10-10T10:56:35.233Z,51.90
2022-10-10T10:59:16.069Z,51.90
2022-10-10T11:01:20.348Z,51.50
2022-10-10T11:03:27.963Z,51.50
2022-10-10T11:05:41.821Z,51.40
2022-10-10T11:07:22.487Z,51.40
2022-10-10T11:09:31.075Z,51.40
2022-10-10T11:11:27.485Z,50.90
2022-10-10T11:13:15.961Z,50.60
2022-10-10T11:15:00.021Z,50.70
2022-10-10T11:16:48.574Z,50.60
2022-10-10T11:18:31.603Z,50.30
2022-10-10T11:20:21.667Z,50.10
2022-10-10T11:22:05.384Z,50.20
2022-10-10T11:23:46.982Z,50.30
2022-10-10T11:25:27.582Z,50.50
2022-10-10T11:27:14.652Z,50.30
2022-10-10T11:28:55.530Z,50.30
2022-10-10T11:30:34.708Z,50.60
2022-10-10T11:34:04.685Z,50.60
2022-10-10T11:35:47.487Z,50.80
2022-10-10T11:37:33.165Z,51.20
2022-10-10T11:39:21.283Z,50.50
2022-10-10T11:41:03.906Z,50.60
2022-10-10T11:42:47.515Z,50.90
2022-10-10T11:44:30.041Z,50.50
2022-10-10T11:46:17.623Z,50.30
2022-10-10T11:48:06.281Z,50.10
2022-10-10T11:49:55.887Z,49.90
2022-10-10T11:51:48.721Z,49.70
2022-10-10T11:53:37.316Z,49.90
2022-10-10T11:55:25.632Z,49.60
2022-10-10T11:57:12.732Z,49.50
2022-10-10T11:58:56.395Z,49.40
2022-10-10T12:00:38.195Z,49.40
2022-10-10T12:02:22.312Z,49.50
2022-10-10T12:03:58.535Z,49.00
2022-10-10T12:05:38.480Z,48.90
2022-10-10T12:07:20.268Z,49.00
2022-10-10T12:09:02.717Z,48.90
2022-10-10T12:10:45.829Z,49.00
2022-10-10T12:12:31.460Z,48.90
2022-10-10T12:14:18.207Z,49.20
2022-10-10T12:15:59.346Z,49.00
2022-10-10T12:17:37.682Z,49.00
2022-10-10T12:19:21.394Z,49.00
2022-10-10T12:21:12.169Z,48.70
2022-10-10T12:23:06.274Z,49.00
2022-10-10T12:25:24.429Z,49.00
2022-10-10T12:27:33.193Z,48.20
2022-10-10T12:29:11.501Z,48.60
2022-10-10T12:31:39.755Z,49.00
2022-10-10T12:33:44.997Z,48.60
2022-10-10T12:35:38.072Z,48.70
2022-10-10T12:37:30.722Z,48.40
2022-10-10T12:39:37.758Z,48.80
2022-10-10T12:41:16.846Z,48.30
2022-10-10T12:43:24.386Z,48.60
2022-10-10T12:44:57.740Z,48.70
2022-10-10T12:46:34.220Z,49.00
2022-10-10T12:48:23.547Z,49.00
2022-10-10T12:50:00.178Z,48.90
2022-10-10T12:51:37.383Z,49.00
2022-10-10T12:53:20.169Z,48.80
2022-10-10T12:55:06.927Z,48.40
2022-10-10T12:56:45.338Z,49.00
2022-10-10T12:58:28.150Z,49.00
2022-10-10T13:00:16.507Z,48.70
2022-10-10T13:01:58.688Z,48.80
2022-10-10T13:03:42.040Z,48.70
2022-10-10T13:05:20.474Z,49.00
2022-10-10T13:07:00.281Z,49.00
2022-10-10T13:08:40.443Z,49.10
2022-10-10T13:10:30.720Z,49.00
2022-10-10T13:12:23.931Z,48.80
2022-10-10T13:13:58.740Z,49.10
2022-10-10T13:15:35.782Z,49.00
2022-10-10T13:17:29.141Z,49.00
2022-10-10T13:19:05.521Z,49.10
2022-10-10T13:20:46.202Z,49.00
2022-10-10T13:22:21.420Z,49.10
2022-10-10T13:24:03.824Z,49.10
2022-10-10T13:25:40.895Z,48.80
2022-10-10T13:27:26.238Z,48.60
2022-10-10T13:29:15.026Z,48.60
2022-10-10T13:30:49.899Z,49.00
2022-10-10T13:32:27.495Z,49.20
2022-10-10T13:34:05.107Z,49.20
2022-10-10T13:35:39.765Z,48.90
2022-10-10T13:37:18.126Z,48.80
2022-10-10T13:38:55.667Z,48.40
2022-10-10T13:40:29.969Z,48.60
2022-10-10T13:42:07.708Z,48.60
2022-10-10T13:43:46.445Z,48.60
2022-10-10T13:45:46.498Z,48.60
2022-10-10T13:47:52.486Z,48.50
2022-10-10T13:49:28.707Z,48.30
2022-10-10T13:51:06.814Z,48.80
2022-10-10T13:52:41.940Z,48.70
2022-10-10T13:54:43.945Z,48.80
2022-10-10T13:56:26.625Z,48.50
2022-10-10T13:58:08.512Z,48.80
2022-10-10T13:59:49.764Z,48.80
2022-10-10T14:01:35.289Z,48.70
2022-10-10T14:03:17.572Z,48.70
2022-10-10T14:04:54.098Z,48.50
2022-10-10T14:06:29.836Z,48.70
2022-10-10T14:08:05.686Z,48.90
2022-10-10T14:09:51.359Z,48.80
2022-10-10T14:11:36.568Z,48.90
2022-10-10T14:13:19.431Z,48.80
2022-10-10T14:14:59.592Z,49.10
2022-10-10T14:16:37.435Z,49.30
2022-10-10T14:18:20.395Z,49.20
2022-10-10T14:19:58.243Z,49.20
2022-10-10T14:21:39.999Z,49.00
2022-10-10T14:23:17.561Z,49.20
2022-10-10T14:24:59.105Z,49.20
2022-10-10T14:26:41.903Z,49.20
2022-10-10T14:28:20.559Z,49.20
2022-10-10T14:29:58.168Z,49.20
2022-10-10T14:31:34.589Z,49.70
2022-10-10T14:33:13.354Z,49.90
2022-10-10T14:34:47.387Z,50.40
2022-10-10T14:36:20.890Z,50.50
2022-10-10T14:37:54.424Z,50.80
2022-10-10T14:39:30.988Z,50.90
2022-10-10T14:41:06.683Z,50.50
2022-10-10T14:42:42.255Z,50.20
2022-10-10T14:44:15.712Z,50.40
2022-10-10T14:45:54.875Z,50.50
2022-10-10T14:47:28.395Z,50.60
2022-10-10T14:49:01.680Z,50.70
2022-10-10T14:50:47.084Z,50.80
2022-10-10T14:52:25.498Z,50.90
2022-10-10T14:54:10.388Z,51.10
2022-10-10T14:55:50.397Z,51.30
2022-10-10T14:57:26.400Z,51.10
2022-10-10T14:59:00.151Z,50.60
2022-10-10T15:00:39.402Z,50.50
2022-10-10T15:02:21.582Z,50.60
2022-10-10T15:03:55.489Z,50.40
2022-10-10T15:05:28.751Z,50.60
2022-10-10T15:07:14.911Z,50.50
2022-10-10T15:08:54.633Z,50.70
2022-10-10T15:10:34.368Z,50.90
2022-10-10T15:12:10.735Z,51.10
2022-10-10T15:13:48.671Z,51.20
2022-10-10T15:15:22.079Z,51.20
2022-10-10T15:16:55.418Z,51.00
2022-10-10T15:18:53.283Z,51.10
2022-10-10T15:20:31.475Z,51.20
2022-10-10T15:22:12.009Z,51.40
2022-10-10T15:23:45.363Z,51.50
2022-10-10T15:25:19.459Z,51.70
2022-10-10T15:26:55.142Z,51.70
2022-10-10T15:28:28.466Z,51.60
2022-10-10T15:30:05.028Z,51.20
2022-10-10T15:31:38.779Z,51.30
2022-10-10T15:33:12.368Z,51.40
2022-10-10T15:34:49.205Z,51.70
2022-10-10T15:36:23.011Z,52.00
2022-10-10T15:37:59.356Z,52.20
2022-10-10T15:39:43.321Z,52.40
2022-10-10T15:41:16.880Z,52.40
2022-10-10T15:42:51.686Z,52.50
2022-10-10T15:44:26.390Z,52.80
2022-10-10T15:46:02.306Z,52.90
2022-10-10T15:47:42.891Z,53.40
2022-10-10T15:49:19.227Z,53.20
2022-10-10T15:50:54.319Z,53.30
2022-10-10T15:52:31.270Z,53.30
2022-10-10T15:54:11.907Z,53.30
2022-10-10T15:55:49.876Z,53.50
2022-10-10T15:57:23.683Z,53.50
2022-10-10T15:58:59.925Z,53.30
2022-10-10T16:00:33.764Z,52.90
2022-10-10T16:02:09.955Z,52.80
2022-10-10T16:03:47.841Z,53.00
2022-10-10T16:05:24.388Z,53.20
2022-10-10T16:09:16.476Z,53.40
2022-10-10T16:10:54.758Z,53.60
2022-10-10T16:12:28.879Z,53.00
2022-10-10T16:14:04.784Z,52.60
2022-10-10T16:15:38.629Z,52.60
2022-10-10T16:17:20.820Z,52.70
2022-10-10T16:18:59.660Z,52.60
2022-10-10T16:20:33.171Z,52.70
2022-10-10T16:22:07.792Z,52.70
2022-10-10T16:23:43.420Z,52.70
2022-10-10T16:25:22.914Z,52.50
2022-10-10T16:26:57.875Z,52.60
2022-10-10T16:28:37.636Z,52.60
2022-10-10T16:30:14.535Z,52.80
2022-10-10T16:31:49.468Z,52.70
2022-10-10T16:33:24.980Z,52.60
2022-10-10T16:34:58.677Z,52.70
2022-10-10T16:36:37.599Z,52.70
2022-10-10T16:38:14.630Z,52.70
2022-10-10T16:39:58.734Z,52.70
2022-10-10T16:41:53.180Z,52.40
2022-10-10T16:43:29.245Z,52.70
2022-10-10T16:45:02.470Z,52.90
2022-10-10T16:46:42.673Z,53.00
2022-10-10T16:48:15.863Z,53.20
2022-10-10T16:49:52.758Z,53.20
2022-10-10T16:51:30.903Z,53.40
2022-10-10T16:53:04.907Z,53.60
2022-10-10T16:54:40.020Z,53.50
2022-10-10T16:56:19.877Z,53.60
2022-10-10T16:57:58.503Z,53.80
2022-10-10T16:59:35.975Z,53.80
2022-10-10T17:01:15.144Z,54.00
2022-10-10T17:02:51.648Z,54.10
2022-10-10T17:04:25.066Z,54.10
2022-10-10T17:06:03.914Z,54.20
2022-10-10T17:07:40.543Z,54.40
2022-10-10T17:09:15.833Z,54.40
2022-10-10T17:10:52.247Z,54.50
2022-10-10T17:12:25.859Z,54.40
2022-10-10T17:14:04.591Z,54.40
2022-10-10T17:15:43.004Z,54.80
2022-10-10T17:17:19.579Z,55.10
2022-10-10T17:18:53.242Z,55.10
2022-10-10T17:20:34.587Z,55.20
2022-10-10T17:22:08.297Z,55.50
2022-10-10T17:23:42.217Z,55.60
2022-10-10T17:25:15.799Z,55.80
2022-10-10T17:26:55.546Z,55.90
2022-10-10T17:28:31.034Z,56.10
2022-10-10T17:30:12.667Z,56.10
2022-10-10T17:31:50.452Z,56.40
2022-10-10T17:33:24.011Z,56.40
2022-10-10T17:35:01.395Z,56.50
2022-10-10T17:36:34.780Z,56.60
2022-10-10T17:38:34.879Z,56.70
2022-10-10T17:40:08.438Z,56.80
2022-10-10T17:41:41.970Z,56.90
2022-10-10T17:43:19.303Z,56.90
2022-10-10T17:45:00.360Z,57.00
2022-10-10T17:46:36.103Z,57.10
2022-10-10T17:48:10.152Z,57.20
2022-10-10T17:49:46.693Z,57.10
2022-10-10T17:51:22.747Z,57.10
2022-10-10T17:52:56.242Z,57.10
2022-10-10T17:54:29.503Z,57.20
2022-10-10T17:56:03.427Z,57.70
2022-10-10T17:57:38.018Z,57.10
2022-10-10T17:59:13.941Z,57.00
2022-10-10T18:00:47.385Z,57.00
2022-10-10T18:02:21.211Z,56.90
2022-10-10T18:03:54.584Z,57.10
2022-10-10T18:05:30.670Z,57.10
2022-10-10T18:07:04.176Z,57.20
2022-10-10T18:08:37.695Z,57.20
2022-10-10T18:10:13.646Z,57.30
2022-10-10T18:11:47.716Z,57.40
2022-10-10T18:13:26.203Z,57.50
2022-10-10T18:15:03.739Z,57.80
2022-10-10T18:16:46.175Z,58.00
2022-10-10T18:18:20.043Z,58.10
2022-10-10T18:19:56.252Z,58.10
2022-10-10T18:21:30.212Z,58.30
2022-10-10T18:23:08.293Z,58.50
2022-10-10T18:24:44.756Z,58.50
2022-10-10T18:26:26.467Z,58.70
2022-10-10T18:28:01.237Z,58.80
2022-10-10T18:29:34.671Z,58.70
2022-10-10T18:31:15.748Z,58.70
2022-10-10T18:32:51.926Z,58.80
2022-10-10T18:34:28.177Z,59.40
2022-10-10T18:36:07.836Z,58.90
2022-10-10T18:37:41.827Z,59.10
2022-10-10T18:39:18.908Z,58.90
2022-10-10T18:41:06.164Z,58.90
2022-10-10T18:42:40.374Z,59.00
2022-10-10T18:44:17.929Z,58.60
2022-10-10T18:45:52.491Z,58.50
2022-10-10T18:47:27.894Z,58.50
2022-10-10T18:49:02.845Z,58.30
2022-10-10T18:50:39.096Z,58.50
2022-10-10T18:52:16.352Z,59.00
2022-10-10T18:53:52.340Z,58.30
2022-10-10T18:55:30.159Z,58.00
2022-10-10T18:57:08.775Z,57.50
2022-10-10T18:58:49.058Z,57.30
2022-10-10T19:00:25.916Z,57.00
2022-10-10T19:02:00.496Z,56.90
2022-10-10T19:03:38.223Z,56.80
2022-10-10T19:05:17.415Z,56.70
2022-10-10T19:06:57.621Z,56.70
2022-10-10T19:08:35.092Z,56.80
2022-10-10T19:10:11.951Z,56.80
2022-10-10T19:11:50.141Z,56.90
2022-10-10T19:13:27.564Z,57.00
2022-10-10T19:15:01.258Z,57.10
2022-10-10T19:16:39.537Z,56.90
2022-10-10T19:18:15.540Z,56.80
2022-10-10T19:19:58.891Z,56.70
2022-10-10T19:21:36.707Z,56.60
2022-10-10T19:23:12.648Z,56.70
2022-10-10T19:24:49.241Z,56.80
2022-10-10T19:26:23.415Z,56.80
2022-10-10T19:27:57.496Z,56.70
2022-10-10T19:29:31.079Z,56.60
2022-10-10T19:31:09.284Z,56.50
2022-10-10T19:32:48.526Z,56.50
2022-10-10T19:34:29.514Z,56.60
2022-10-10T19:36:09.475Z,56.30
2022-10-10T19:37:46.629Z,56.40
2022-10-10T19:39:23.228Z,56.10
2022-10-10T19:40:57.000Z,56.10
2022-10-10T19:42:33.125Z,56.10
2022-10-10T19:44:06.970Z,56.20
2022-10-10T19:45:44.768Z,56.40
2022-10-10T19:47:19.387Z,56.40
2022-10-10T19:48:56.912Z,56.50
2022-10-10T19:50:32.303Z,56.60
2022-10-10T19:52:07.713Z,56.90
2022-10-10T19:53:43.401Z,57.10
2022-10-10T19:55:18.424Z,57.20
2022-10-10T19:56:53.739Z,57.30
2022-10-10T19:58:31.869Z,57.50
2022-10-10T20:00:07.024Z,58.10
2022-10-10T20:02:00.795Z,58.30
2022-10-10T20:03:37.570Z,58.10
2022-10-10T20:05:11.957Z,58.10
2022-10-10T20:06:50.224Z,58.10
2022-10-10T20:08:29.413Z,58.20
2022-10-10T20:10:05.934Z,58.20
2022-10-10T20:11:42.285Z,58.10
2022-10-10T20:13:18.396Z,58.20
2022-10-10T20:14:52.572Z,57.90
2022-10-10T20:16:30.033Z,58.00
2022-10-10T20:18:05.650Z,58.00
2022-10-10T20:19:39.690Z,57.90
2022-10-10T20:21:21.767Z,57.90
2022-10-10T20:22:55.652Z,57.80
2022-10-10T20:24:29.686Z,57.60
2022-10-10T20:26:14.225Z,57.60
2022-10-10T20:27:48.427Z,57.80
2022-10-10T20:29:25.797Z,57.70
2022-10-10T20:31:08.116Z,57.70
2022-10-10T20:32:41.744Z,57.60
2022-10-10T20:34:17.693Z,57.50
2022-10-10T20:35:58.657Z,57.50
2022-10-10T20:37:35.035Z,57.40
2022-10-10T20:39:12.936Z,57.40
2022-10-10T20:40:49.060Z,57.30
2022-10-10T20:42:22.747Z,57.20
2022-10-10T20:44:01.273Z,57.30
2022-10-10T20:45:41.586Z,57.30
2022-10-10T20:47:19.324Z,57.30
2022-10-10T20:48:57.864Z,57.20
2022-10-10T20:50:43.988Z,57.40
2022-10-10T20:52:23.269Z,57.40
2022-10-10T20:54:02.575Z,57.40
2022-10-10T20:55:41.711Z,57.40
2022-10-10T20:57:17.314Z,57.40
2022-10-10T20:58:59.007Z,57.40
2022-10-10T21:00:32.893Z,57.60
2022-10-10T21:02:06.561Z,57.50
2022-10-10T21:03:41.812Z,57.50
2022-10-10T21:05:20.870Z,57.70
2022-10-10T21:06:59.821Z,57.70
2022-10-10T21:08:36.450Z,57.80
2022-10-10T21:10:11.414Z,57.70
2022-10-10T21:11:48.662Z,57.60
2022-10-10T21:13:23.705Z,57.60
2022-10-10T21:15:02.377Z,57.70
2022-10-10T21:16:41.640Z,57.70
2022-10-10T21:18:15.700Z,57.80
2022-10-10T21:19:49.947Z,57.80
2022-10-10T21:21:25.781Z,57.60
2022-10-10T21:23:04.300Z,57.80